createdAt,value
2023-03-27T00:01:22.261Z,5.50
2023-03-27T00:03:50.085Z,5.50
2023-03-27T00:06:17.553Z,5.50
2023-03-27T00:08:46.329Z,5.50
2023-03-27T00:11:14.625Z,5.40
2023-03-27T00:13:49.042Z,5.40
2023-03-27T00:16:21.525Z,5.50
2023-03-27T00:18:48.828Z,5.40
2023-03-27T00:21:15.973Z,5.40
2023-03-27T00:23:43.010Z,5.40
2023-03-27T00:26:11.734Z,5.40
2023-03-27T00:28:38.815Z,5.40
2023-03-27T00:31:08.822Z,5.40
2023-03-27T00:33:36.275Z,5.30
2023-03-27T00:36:03.461Z,5.40
2023-03-27T00:38:31.366Z,5.40
2023-03-27T00:40:58.881Z,5.40
2023-03-27T00:43:30.513Z,5.40
2023-03-27T00:45:58.712Z,5.40
2023-03-27T00:48:25.800Z,5.40
2023-03-27T00:50:52.893Z,5.40
2023-03-27T00:53:21.973Z,5.40
2023-03-27T00:55:49.669Z,5.40
2023-03-27T00:58:17.792Z,5.40
2023-03-27T01:00:44.853Z,5.40
2023-03-27T01:03:12.016Z,5.50
2023-03-27T01:05:39.442Z,5.50
2023-03-27T01:08:06.624Z,5.50
2023-03-27T01:10:39.709Z,5.50
2023-03-27T01:13:27.127Z,5.40
2023-03-27T01:15:54.277Z,5.40
2023-03-27T01:18:33.523Z,5.50
2023-03-27T01:21:13.653Z,5.40
2023-03-27T01:24:00.866Z,5.40
2023-03-27T01:26:51.584Z,5.40
2023-03-27T01:29:22.693Z,5.40
2023-03-27T01:32:05.233Z,5.40
2023-03-27T01:34:42.739Z,5.30
2023-03-27T01:37:13.340Z,5.40
2023-03-27T01:39:56.094Z,5.30
2023-03-27T01:42:25.380Z,5.30
2023-03-27T01:44:54.258Z,5.30
2023-03-27T01:47:30.892Z,5.30
2023-03-27T01:50:09.460Z,5.30
2023-03-27T01:52:38.254Z,5.30
2023-03-27T01:55:09.683Z,5.20
2023-03-27T01:57:49.240Z,5.30
2023-03-27T02:00:21.746Z,5.20
2023-03-27T02:02:59.807Z,5.20
2023-03-27T02:05:29.210Z,5.20
2023-03-27T02:07:58.848Z,5.20
2023-03-27T02:10:27.525Z,5.20
2023-03-27T02:12:56.383Z,5.20
2023-03-27T02:15:25.344Z,5.20
2023-03-27T02:17:57.036Z,5.20
2023-03-27T02:20:24.260Z,5.10
2023-03-27T02:22:53.607Z,5.20
2023-03-27T02:25:28.763Z,5.20
2023-03-27T02:27:59.023Z,5.20
2023-03-27T02:30:27.410Z,5.10
2023-03-27T02:33:14.718Z,5.20
2023-03-27T02:35:59.252Z,5.10
2023-03-27T02:38:34.808Z,5.10
2023-03-27T02:41:05.458Z,5.10
2023-03-27T02:43:53.693Z,5.10
2023-03-27T02:46:32.988Z,5.10
2023-03-27T02:49:02.114Z,5.10
2023-03-27T02:51:30.543Z,5.10
2023-03-27T02:54:01.743Z,5.10
2023-03-27T02:56:32.158Z,5.10
2023-03-27T02:58:59.861Z,5.10
2023-03-27T03:01:38.154Z,5.00
2023-03-27T03:04:31.303Z,5.00
2023-03-27T03:07:06.374Z,5.00
2023-03-27T03:09:33.986Z,5.00
2023-03-27T03:12:08.251Z,4.90
2023-03-27T03:14:40.820Z,5.00
2023-03-27T03:17:08.811Z,4.90
2023-03-27T03:19:37.165Z,4.90
2023-03-27T03:22:04.597Z,4.90
2023-03-27T03:24:34.456Z,4.90
2023-03-27T03:27:04.409Z,4.90
2023-03-27T03:29:37.468Z,4.90
2023-03-27T03:32:12.234Z,4.90
2023-03-27T03:34:41.813Z,4.80
2023-03-27T03:37:13.274Z,4.80
2023-03-27T03:39:40.811Z,4.80
2023-03-27T03:42:08.755Z,4.80
2023-03-27T03:44:37.149Z,4.80
2023-03-27T03:47:17.815Z,4.80
2023-03-27T03:49:44.877Z,4.80
2023-03-27T03:52:12.592Z,4.80
2023-03-27T03:54:40.432Z,4.70
2023-03-27T03:57:08.753Z,4.70
2023-03-27T03:59:36.170Z,4.70
2023-03-27T04:02:31.954Z,4.70
2023-03-27T04:05:10.462Z,4.60
2023-03-27T04:07:39.947Z,4.60
2023-03-27T04:10:37.389Z,4.60
2023-03-27T04:13:08.848Z,4.60
2023-03-27T04:15:40.429Z,4.50
2023-03-27T04:18:34.909Z,4.60
2023-03-27T04:21:05.985Z,4.60
2023-03-27T04:23:33.825Z,4.60
2023-03-27T04:26:02.047Z,4.60
2023-03-27T04:28:51.629Z,4.60
2023-03-27T04:31:39.117Z,4.60
2023-03-27T04:34:26.132Z,4.60
2023-03-27T04:37:30.412Z,4.70
2023-03-27T04:40:30.758Z,4.60
2023-03-27T04:42:57.901Z,4.60
2023-03-27T04:45:25.788Z,4.70
2023-03-27T04:47:54.499Z,4.70
2023-03-27T04:50:21.919Z,4.70
2023-03-27T04:52:50.649Z,4.60
2023-03-27T04:55:19.837Z,4.60
2023-03-27T04:57:49.798Z,4.60
2023-03-27T05:00:19.583Z,4.50
2023-03-27T05:02:47.663Z,4.50
2023-03-27T05:05:25.221Z,4.50
2023-03-27T05:07:52.895Z,4.50
2023-03-27T05:10:22.975Z,4.40
2023-03-27T05:12:51.989Z,4.50
2023-03-27T05:15:19.078Z,4.50
2023-03-27T05:17:47.181Z,4.40
2023-03-27T05:20:16.621Z,4.40
2023-03-27T05:22:44.105Z,4.30
2023-03-27T05:25:31.882Z,4.30
2023-03-27T05:28:00.591Z,4.30
2023-03-27T05:30:31.129Z,4.30
2023-03-27T05:33:20.512Z,4.20
2023-03-27T05:35:49.012Z,4.20
2023-03-27T05:38:17.283Z,4.20
2023-03-27T05:40:56.536Z,4.20
2023-03-27T05:43:24.359Z,4.10
2023-03-27T05:45:52.031Z,4.00
2023-03-27T05:48:19.130Z,4.00
2023-03-27T05:50:46.257Z,4.00
2023-03-27T05:53:19.411Z,4.00
2023-03-27T05:56:02.826Z,4.00
2023-03-27T05:58:38.646Z,4.00
2023-03-27T06:01:05.943Z,3.90
2023-03-27T06:03:36.977Z,3.90
2023-03-27T06:06:11.154Z,3.90
2023-03-27T06:08:39.088Z,3.90
2023-03-27T06:11:11.170Z,3.90
2023-03-27T06:13:45.548Z,3.90
2023-03-27T06:16:20.458Z,3.80
2023-03-27T06:19:07.394Z,3.80
2023-03-27T06:21:46.140Z,3.80
2023-03-27T06:24:13.796Z,3.80
2023-03-27T06:26:41.794Z,3.70
2023-03-27T06:29:09.725Z,3.70
2023-03-27T06:31:44.861Z,3.70
2023-03-27T06:34:18.554Z,3.60
2023-03-27T06:37:07.329Z,3.60
2023-03-27T06:39:39.652Z,3.60
2023-03-27T06:42:06.840Z,3.50
2023-03-27T06:44:59.368Z,3.50
2023-03-27T06:47:55.999Z,3.40
2023-03-27T06:50:46.411Z,3.40
2023-03-27T06:53:26.629Z,3.40
2023-03-27T06:55:56.876Z,3.30
2023-03-27T06:58:25.386Z,3.40
2023-03-27T07:00:53.573Z,3.30
2023-03-27T07:03:21.336Z,3.30
2023-03-27T07:06:08.577Z,3.20
2023-03-27T07:09:08.744Z,3.20
2023-03-27T07:12:01.479Z,3.20
2023-03-27T07:14:30.978Z,3.10
2023-03-27T07:16:58.172Z,3.20
2023-03-27T07:19:29.565Z,3.20
2023-03-27T07:22:04.245Z,3.10
2023-03-27T07:24:33.517Z,3.20
2023-03-27T07:27:03.334Z,3.10
2023-03-27T07:29:40.180Z,3.10
2023-03-27T07:32:09.409Z,3.10
2023-03-27T07:34:43.190Z,3.10
2023-03-27T07:37:33.028Z,3.10
2023-03-27T07:40:36.853Z,3.10
2023-03-27T07:43:25.391Z,3.00
2023-03-27T07:45:53.104Z,3.00
2023-03-27T07:48:24.690Z,2.90
2023-03-27T07:50:54.393Z,2.90
2023-03-27T07:53:33.998Z,2.90
2023-03-27T07:56:22.051Z,2.80
2023-03-27T07:58:51.503Z,2.80
2023-03-27T08:01:21.414Z,2.70
2023-03-27T08:03:49.771Z,2.80
2023-03-27T08:06:19.278Z,2.70
2023-03-27T08:08:47.412Z,2.70
2023-03-27T08:11:27.441Z,2.70
2023-03-27T08:13:58.491Z,2.70
2023-03-27T08:16:29.578Z,2.80
2023-03-27T08:18:58.632Z,2.80
2023-03-27T08:21:27.112Z,2.90
2023-03-27T08:23:57.357Z,2.90
2023-03-27T08:26:47.881Z,3.00
2023-03-27T08:29:14.971Z,3.10
2023-03-27T08:31:47.107Z,3.30
2023-03-27T08:34:15.635Z,3.40
2023-03-27T08:36:45.672Z,3.40
2023-03-27T08:39:14.097Z,3.50
2023-03-27T08:42:03.106Z,3.50
2023-03-27T08:44:36.204Z,3.30
2023-03-27T08:47:32.702Z,3.30
2023-03-27T08:50:14.789Z,3.20
2023-03-27T08:52:48.290Z,3.10
2023-03-27T08:55:34.682Z,3.10
2023-03-27T08:58:18.446Z,3.00
2023-03-27T09:00:47.584Z,3.00
2023-03-27T09:03:44.195Z,3.00
2023-03-27T09:06:21.060Z,3.00
2023-03-27T09:09:11.506Z,3.00
2023-03-27T09:11:38.917Z,3.00
2023-03-27T09:14:32.837Z,3.00
2023-03-27T09:17:01.043Z,3.00
2023-03-27T09:19:56.371Z,3.00
2023-03-27T09:22:44.195Z,3.10
2023-03-27T09:25:18.975Z,3.10
2023-03-27T09:27:58.220Z,3.10
2023-03-27T09:30:34.543Z,3.20
2023-03-27T09:33:13.830Z,3.20
2023-03-27T09:35:43.787Z,3.20
2023-03-27T09:38:31.974Z,3.20
2023-03-27T09:40:59.861Z,3.20
2023-03-27T09:43:31.611Z,3.20
2023-03-27T09:46:01.713Z,3.20
2023-03-27T09:48:29.084Z,3.20
2023-03-27T09:50:57.011Z,3.20
2023-03-27T09:53:39.750Z,3.20
2023-03-27T09:56:13.175Z,3.30
2023-03-27T09:58:45.585Z,3.40
2023-03-27T10:01:16.876Z,3.40
2023-03-27T10:03:50.122Z,3.50
2023-03-27T10:06:30.939Z,3.60
2023-03-27T10:09:36.618Z,3.60
2023-03-27T10:12:07.859Z,3.70
2023-03-27T10:14:40.194Z,3.80
2023-03-27T10:17:11.325Z,3.80
2023-03-27T10:19:39.412Z,3.80
2023-03-27T10:22:19.309Z,3.90
2023-03-27T10:24:47.906Z,3.90
2023-03-27T10:27:19.726Z,3.90
2023-03-27T10:30:34.230Z,4.00
2023-03-27T10:33:13.478Z,4.00
2023-03-27T10:35:55.074Z,4.10
2023-03-27T10:38:29.058Z,4.10
2023-03-27T10:41:09.389Z,4.10
2023-03-27T10:43:43.985Z,4.10
2023-03-27T10:46:13.436Z,4.00
2023-03-27T10:48:40.790Z,4.10
2023-03-27T10:51:28.420Z,4.10
2023-03-27T10:54:21.082Z,4.20
2023-03-27T10:56:59.152Z,4.30
2023-03-27T10:59:41.573Z,4.40
2023-03-27T11:02:35.180Z,4.40
2023-03-27T11:05:02.892Z,4.30
2023-03-27T11:07:49.371Z,4.30
2023-03-27T11:10:29.173Z,4.20
2023-03-27T11:13:01.877Z,4.20
2023-03-27T11:15:42.100Z,4.20
2023-03-27T11:18:36.512Z,4.10
2023-03-27T11:21:13.731Z,4.20
2023-03-27T11:23:56.737Z,4.20
2023-03-27T11:26:40.795Z,4.40
2023-03-27T11:29:28.372Z,4.60
2023-03-27T11:32:00.012Z,4.70
2023-03-27T11:34:54.403Z,4.70
2023-03-27T11:37:59.483Z,4.50
2023-03-27T11:40:34.333Z,4.50
2023-03-27T11:43:02.565Z,4.70
2023-03-27T11:45:32.596Z,4.80
2023-03-27T11:48:10.183Z,5.00
2023-03-27T11:50:46.472Z,5.10
2023-03-27T11:53:32.539Z,5.20
2023-03-27T11:56:14.548Z,5.30
2023-03-27T11:58:56.941Z,5.20
2023-03-27T12:01:27.373Z,5.00
2023-03-27T12:04:09.984Z,4.80
2023-03-27T12:07:04.888Z,4.60
2023-03-27T12:09:37.591Z,4.40
2023-03-27T12:12:46.024Z,4.40
2023-03-27T12:15:16.638Z,4.40
2023-03-27T12:17:46.118Z,4.40
2023-03-27T12:20:33.220Z,4.40
2023-03-27T12:23:25.730Z,4.50
2023-03-27T12:26:31.686Z,4.50
2023-03-27T12:29:23.593Z,4.50
2023-03-27T12:31:58.264Z,4.60
2023-03-27T12:34:31.692Z,4.60
2023-03-27T12:37:01.030Z,4.60
2023-03-27T12:39:28.677Z,4.60
2023-03-27T12:42:08.366Z,4.60
2023-03-27T12:45:03.232Z,4.50
2023-03-27T12:47:30.634Z,4.50
2023-03-27T12:50:11.686Z,4.60
2023-03-27T12:52:45.664Z,4.70
2023-03-27T12:55:17.461Z,4.70
2023-03-27T12:57:56.971Z,4.60
2023-03-27T13:00:47.199Z,4.60
2023-03-27T13:03:21.423Z,4.50
2023-03-27T13:06:08.509Z,4.50
2023-03-27T13:08:54.661Z,4.40
2023-03-27T13:11:34.759Z,4.50
2023-03-27T13:14:05.711Z,4.80
2023-03-27T13:16:52.966Z,4.90
2023-03-27T13:19:41.018Z,4.90
2023-03-27T13:22:17.464Z,4.80
2023-03-27T13:24:50.678Z,4.70
2023-03-27T13:27:26.696Z,4.60
2023-03-27T13:29:53.876Z,4.60
2023-03-27T13:32:36.449Z,4.50
2023-03-27T13:35:33.897Z,4.50
2023-03-27T13:38:01.277Z,4.60
2023-03-27T13:40:40.522Z,4.60
2023-03-27T13:43:16.799Z,4.60
2023-03-27T13:45:47.011Z,4.60
2023-03-27T13:48:50.238Z,4.70
2023-03-27T13:51:23.376Z,4.70
2023-03-27T13:54:02.038Z,4.80
2023-03-27T13:56:51.947Z,4.90
2023-03-27T13:59:45.228Z,5.00
2023-03-27T14:02:40.462Z,5.10
2023-03-27T14:05:22.559Z,5.20
2023-03-27T14:07:53.415Z,5.20
2023-03-27T14:10:31.023Z,5.20
2023-03-27T14:13:03.259Z,5.10
2023-03-27T14:16:09.138Z,5.10
2023-03-27T14:18:43.947Z,5.20
2023-03-27T14:21:12.519Z,5.40
2023-03-27T14:23:47.173Z,5.30
2023-03-27T14:26:24.557Z,5.10
2023-03-27T14:28:55.519Z,4.90
2023-03-27T14:31:35.374Z,4.70
2023-03-27T14:34:06.427Z,4.50
2023-03-27T14:36:42.023Z,4.30
2023-03-27T14:39:20.530Z,4.20
2023-03-27T14:41:55.620Z,4.10
2023-03-27T14:44:25.904Z,4.00
2023-03-27T14:47:00.115Z,4.00
2023-03-27T14:49:28.536Z,4.00
2023-03-27T14:52:00.322Z,4.00
2023-03-27T14:55:04.128Z,4.10
2023-03-27T14:57:35.865Z,4.30
2023-03-27T15:03:51.537Z,4.40
2023-03-27T15:06:23.171Z,4.50
2023-03-27T15:08:55.593Z,4.40
2023-03-27T15:12:04.116Z,4.50
2023-03-27T15:14:33.193Z,4.50
2023-03-27T15:17:02.825Z,4.40
2023-03-27T15:19:38.931Z,4.30
2023-03-27T15:22:18.118Z,4.30
2023-03-27T15:24:52.745Z,4.30
2023-03-27T15:27:23.240Z,4.30
2023-03-27T15:29:51.865Z,4.30
2023-03-27T15:32:22.068Z,4.40
2023-03-27T15:34:51.181Z,4.40
2023-03-27T15:37:18.940Z,4.40
2023-03-27T15:40:08.968Z,4.40
2023-03-27T15:42:48.273Z,4.40
2023-03-27T15:45:16.743Z,4.40
2023-03-27T15:47:45.394Z,4.40
2023-03-27T15:50:17.232Z,4.40
2023-03-27T15:52:50.884Z,4.40
2023-03-27T15:55:36.718Z,4.40
2023-03-27T15:58:36.251Z,4.40
2023-03-27T16:01:03.458Z,4.40
2023-03-27T16:03:48.248Z,4.30
2023-03-27T16:06:22.897Z,4.20
2023-03-27T16:08:51.467Z,4.20
2023-03-27T16:11:35.962Z,4.20
2023-03-27T16:14:02.992Z,4.20
2023-03-27T16:16:30.818Z,4.20
2023-03-27T16:18:58.567Z,4.10
2023-03-27T16:21:26.329Z,4.10
2023-03-27T16:23:53.514Z,4.10
2023-03-27T16:26:25.426Z,4.00
2023-03-27T16:28:54.288Z,4.00
2023-03-27T16:31:21.438Z,4.00
2023-03-27T16:33:48.513Z,4.00
2023-03-27T16:36:16.138Z,4.00
2023-03-27T16:38:44.357Z,4.00
2023-03-27T16:41:15.049Z,4.00
2023-03-27T16:43:42.258Z,3.90
2023-03-27T16:46:21.942Z,3.70
2023-03-27T16:48:49.459Z,3.50
2023-03-27T16:51:17.006Z,3.10
2023-03-27T16:53:44.081Z,3.00
2023-03-27T16:56:11.613Z,2.90
2023-03-27T16:58:38.753Z,2.80
2023-03-27T17:01:06.633Z,2.80
2023-03-27T17:03:33.928Z,2.80
2023-03-27T17:06:05.134Z,2.80
2023-03-27T17:08:32.250Z,2.80
2023-03-27T17:11:03.713Z,2.80
2023-03-27T17:13:31.634Z,2.70
2023-03-27T17:15:59.067Z,2.70
2023-03-27T17:18:26.391Z,2.70
2023-03-27T17:20:54.803Z,2.70
2023-03-27T17:23:21.944Z,2.70
2023-03-27T17:25:49.024Z,2.70
2023-03-27T17:28:18.166Z,2.70
2023-03-27T17:30:56.496Z,2.70
2023-03-27T17:33:29.120Z,2.70
2023-03-27T17:35:56.922Z,2.70
2023-03-27T17:38:24.554Z,2.60
2023-03-27T17:40:52.293Z,2.60
2023-03-27T17:43:19.515Z,2.60
2023-03-27T17:45:47.877Z,2.60
2023-03-27T17:48:15.413Z,2.50
2023-03-27T17:50:42.483Z,2.50
2023-03-27T17:53:09.530Z,2.40
2023-03-27T17:55:37.726Z,2.20
2023-03-27T17:58:09.252Z,2.10
2023-03-27T18:00:37.502Z,2.10
2023-03-27T18:03:04.913Z,2.00
2023-03-27T18:05:38.303Z,2.00
2023-03-27T18:08:06.024Z,2.00
2023-03-27T18:10:36.563Z,2.00
2023-03-27T18:13:03.663Z,2.00
2023-03-27T18:15:30.829Z,2.00
2023-03-27T18:17:58.374Z,2.00
2023-03-27T18:20:25.547Z,2.00
2023-03-27T18:22:52.637Z,2.00
2023-03-27T18:25:19.666Z,2.00
2023-03-27T18:27:47.695Z,2.00
2023-03-27T18:30:15.097Z,2.00
2023-03-27T18:32:42.757Z,2.00
2023-03-27T18:35:14.211Z,1.90
2023-03-27T18:37:41.684Z,2.00
2023-03-27T18:40:09.432Z,2.00
2023-03-27T18:42:40.688Z,1.90
2023-03-27T18:45:08.059Z,1.90
2023-03-27T18:47:35.524Z,1.90
2023-03-27T18:50:06.949Z,1.80
2023-03-27T18:52:34.030Z,1.80
2023-03-27T18:55:01.149Z,1.80
2023-03-27T18:57:29.380Z,1.90
2023-03-27T18:59:59.313Z,1.90
2023-03-27T19:02:26.774Z,1.90
2023-03-27T19:04:54.039Z,1.80
2023-03-27T19:07:22.141Z,1.80
2023-03-27T19:09:49.161Z,1.80
2023-03-27T19:12:17.240Z,1.90
2023-03-27T19:15:19.894Z,1.90
2023-03-27T19:17:56.548Z,1.90
2023-03-27T19:20:53.069Z,1.80
2023-03-27T19:23:42.678Z,1.80
2023-03-27T19:26:11.374Z,1.80
2023-03-27T19:28:42.317Z,1.80
2023-03-27T19:31:10.867Z,1.80
2023-03-27T19:33:39.029Z,1.80
2023-03-27T19:36:07.027Z,1.80
2023-03-27T19:38:34.135Z,1.80
2023-03-27T19:41:02.182Z,1.80
2023-03-27T19:43:32.122Z,1.80
2023-03-27T19:46:12.511Z,1.80
2023-03-27T19:48:43.132Z,1.80
2023-03-27T19:51:18.477Z,1.70
2023-03-27T19:53:49.460Z,1.70
2023-03-27T19:56:20.219Z,1.60
2023-03-27T19:58:47.299Z,1.60
2023-03-27T20:01:14.514Z,1.60
2023-03-27T20:03:41.998Z,1.50
2023-03-27T20:06:11.940Z,1.50
2023-03-27T20:08:42.075Z,1.50
2023-03-27T20:11:09.254Z,1.50
2023-03-27T20:13:48.957Z,1.40
2023-03-27T20:16:16.633Z,1.50
2023-03-27T20:18:55.109Z,1.50
2023-03-27T20:21:24.606Z,1.40
2023-03-27T20:23:53.796Z,1.40
2023-03-27T20:26:28.138Z,1.40
2023-03-27T20:29:02.952Z,1.40
2023-03-27T20:31:30.083Z,1.40
2023-03-27T20:34:25.435Z,1.40
2023-03-27T20:36:53.418Z,1.40
2023-03-27T20:39:33.581Z,1.40
2023-03-27T20:42:00.709Z,1.40
2023-03-27T20:44:36.174Z,1.40
2023-03-27T20:47:03.540Z,1.30
2023-03-27T20:49:40.637Z,1.40
2023-03-27T20:52:09.156Z,1.30
2023-03-27T20:54:36.443Z,1.30
2023-03-27T20:57:03.558Z,1.30
2023-03-27T20:59:30.976Z,1.30
2023-03-27T21:02:00.052Z,1.30
2023-03-27T21:04:28.387Z,1.30
2023-03-27T21:06:55.547Z,1.30
2023-03-27T21:09:22.853Z,1.30
2023-03-27T21:11:53.452Z,1.30
2023-03-27T21:14:20.601Z,1.30
2023-03-27T21:16:47.732Z,1.30
2023-03-27T21:19:14.861Z,1.20
2023-03-27T21:21:44.028Z,1.20
2023-03-27T21:24:11.162Z,1.20
2023-03-27T21:26:38.235Z,1.20
2023-03-27T21:29:05.662Z,1.20
2023-03-27T21:31:32.747Z,1.20
2023-03-27T21:33:59.834Z,1.20
2023-03-27T21:36:29.604Z,1.20
2023-03-27T21:38:57.036Z,1.20
2023-03-27T21:41:24.154Z,1.20
2023-03-27T21:43:53.187Z,1.20
2023-03-27T21:46:20.238Z,1.10
2023-03-27T21:48:50.814Z,1.10
2023-03-27T21:51:18.091Z,1.20
2023-03-27T21:53:45.829Z,1.20
2023-03-27T21:56:12.902Z,1.10
2023-03-27T21:58:40.079Z,1.10
2023-03-27T22:01:07.293Z,1.20
2023-03-27T22:03:34.393Z,1.10
2023-03-27T22:06:12.187Z,1.10
2023-03-27T22:08:41.245Z,1.10
2023-03-27T22:11:08.395Z,1.10
2023-03-27T22:13:36.177Z,1.10
2023-03-27T22:16:10.291Z,1.10
2023-03-27T22:18:37.513Z,1.10
2023-03-27T22:21:14.404Z,1.10
2023-03-27T22:23:41.597Z,1.10
2023-03-27T22:26:09.700Z,1.10
2023-03-27T22:28:36.835Z,1.10
2023-03-27T22:31:04.565Z,1.10
2023-03-27T22:33:32.279Z,1.00
2023-03-27T22:35:59.604Z,1.00
2023-03-27T22:38:29.100Z,1.00
2023-03-27T22:40:56.400Z,1.00
2023-03-27T22:43:23.608Z,1.10
2023-03-27T22:45:50.822Z,1.00
2023-03-27T22:48:18.399Z,1.00
2023-03-27T22:50:52.568Z,1.00
2023-03-27T22:53:20.978Z,1.00
2023-03-27T22:55:48.809Z,1.00
2023-03-27T22:58:16.269Z,1.00
2023-03-27T23:00:45.220Z,1.00
2023-03-27T23:03:12.368Z,1.00
2023-03-27T23:05:42.952Z,1.00
2023-03-27T23:08:10.117Z,1.00
2023-03-27T23:10:37.229Z,1.00
2023-03-27T23:13:04.340Z,1.00
2023-03-27T23:15:31.440Z,1.10
2023-03-27T23:17:58.550Z,1.10
2023-03-27T23:20:27.177Z,1.00
2023-03-27T23:22:54.345Z,1.10
2023-03-27T23:25:21.372Z,1.00
2023-03-27T23:27:48.439Z,1.00
2023-03-27T23:30:16.549Z,1.10
2023-03-27T23:32:43.684Z,1.10
2023-03-27T23:35:11.258Z,1.00
2023-03-27T23:37:39.383Z,1.00
2023-03-27T23:40:07.174Z,1.10
2023-03-27T23:42:34.233Z,1.00
2023-03-27T23:45:01.410Z,1.10
2023-03-27T23:47:28.476Z,1.10
2023-03-27T23:49:56.217Z,1.10
2023-03-27T23:52:23.211Z,1.10
2023-03-27T23:54:50.373Z,1.10
2023-03-27T23:57:17.545Z,1.10
2023-03-27T23:59:44.626Z,1.10
